createdAt,value
2022-07-30T00:00:03.622Z,0.02
2022-07-30T00:01:03.480Z,0.02
2022-07-30T00:02:04.197Z,0.02
2022-07-30T00:03:04.215Z,0.02
2022-07-30T00:04:04.033Z,0.02
2022-07-30T00:05:04.401Z,0.02
2022-07-30T00:06:04.085Z,0.02
2022-07-30T00:07:03.869Z,0.02
2022-07-30T00:08:03.573Z,0.01
2022-07-30T00:09:03.942Z,0.02
2022-07-30T00:10:03.427Z,0.02
2022-07-30T00:11:03.817Z,0.02
2022-07-30T00:12:04.198Z,0.02
2022-07-30T00:13:04.432Z,0.02
2022-07-30T00:14:04.086Z,0.02
2022-07-30T00:15:04.515Z,0.02
2022-07-30T00:16:04.631Z,0.02
2022-07-30T00:17:04.120Z,0.02
2022-07-30T00:18:03.484Z,0.02
2022-07-30T00:19:03.551Z,0.02
2022-07-30T00:20:03.260Z,0.02
2022-07-30T00:21:03.662Z,0.02
2022-07-30T00:22:04.084Z,0.02
2022-07-30T00:23:04.052Z,0.02
2022-07-30T00:24:04.381Z,0.01
2022-07-30T00:25:03.997Z,0.02
2022-07-30T00:26:04.104Z,0.02
2022-07-30T00:27:03.790Z,0.02
2022-07-30T00:28:03.801Z,0.02
2022-07-30T00:29:03.618Z,0.02
2022-07-30T00:30:03.316Z,0.02
2022-07-30T00:31:03.782Z,0.02
2022-07-30T00:32:04.060Z,0.03
2022-07-30T00:33:04.345Z,0.02
2022-07-30T00:34:04.243Z,0.03
2022-07-30T00:35:04.212Z,0.01
2022-07-30T00:36:03.852Z,0.02
2022-07-30T00:37:04.203Z,0.02
2022-07-30T00:38:04.099Z,0.02
2022-07-30T00:39:04.495Z,0.02
2022-07-30T00:40:04.214Z,0.02
2022-07-30T00:41:04.449Z,0.02
2022-07-30T00:42:03.900Z,0.02
2022-07-30T00:43:03.647Z,0.02
2022-07-30T00:44:03.981Z,0.02
2022-07-30T00:45:04.058Z,0.02
2022-07-30T00:46:03.897Z,0.02
2022-07-30T00:47:04.770Z,0.03
2022-07-30T00:48:04.543Z,0.02
2022-07-30T00:49:04.639Z,0.02
2022-07-30T00:50:04.406Z,0.02
2022-07-30T00:51:04.067Z,0.02
2022-07-30T00:52:04.224Z,0.03
2022-07-30T00:53:04.603Z,0.01
2022-07-30T00:54:04.748Z,0.02
2022-07-30T00:55:04.493Z,0.02
2022-07-30T00:56:04.205Z,0.02
2022-07-30T00:57:04.645Z,0.02
2022-07-30T00:58:04.372Z,0.01
2022-07-30T00:59:04.803Z,0.02
2022-07-30T01:00:04.523Z,0.02
2022-07-30T01:01:04.317Z,0.01
2022-07-30T01:02:03.639Z,0.02
2022-07-30T01:03:03.373Z,0.02
2022-07-30T01:04:03.997Z,0.02
2022-07-30T01:05:03.690Z,0.01
2022-07-30T01:06:03.357Z,0.02
2022-07-30T01:07:03.654Z,0.02
2022-07-30T01:08:03.407Z,0.02
2022-07-30T01:09:03.423Z,0.02
2022-07-30T01:10:03.446Z,0.02
2022-07-30T01:11:03.084Z,0.02
2022-07-30T01:12:03.855Z,0.02
2022-07-30T01:13:04.325Z,0.01
2022-07-30T01:14:04.041Z,0.02
2022-07-30T01:15:03.919Z,0.03
2022-07-30T01:16:04.314Z,0.02
2022-07-30T01:17:03.617Z,0.02
2022-07-30T01:18:03.255Z,0.02
2022-07-30T01:19:03.603Z,0.02
2022-07-30T01:20:03.304Z,0.01
2022-07-30T01:21:03.636Z,0.03
2022-07-30T01:22:04.126Z,0.02
2022-07-30T01:23:03.570Z,0.02
2022-07-30T01:24:03.672Z,0.01
2022-07-30T01:25:03.561Z,0.02
2022-07-30T01:26:03.904Z,0.01
2022-07-30T01:27:04.324Z,0.02
2022-07-30T01:28:03.997Z,0.02
2022-07-30T01:29:04.332Z,0.02
2022-07-30T01:30:04.027Z,0.01
2022-07-30T01:31:04.387Z,0.02
2022-07-30T01:32:03.859Z,0.02
2022-07-30T01:33:03.606Z,0.02
2022-07-30T01:34:03.468Z,0.02
2022-07-30T01:35:03.672Z,0.02
2022-07-30T01:36:03.540Z,0.02
2022-07-30T01:37:04.127Z,0.02
2022-07-30T01:38:03.744Z,0.02
2022-07-30T01:39:03.451Z,0.02
2022-07-30T01:40:03.821Z,0.02
2022-07-30T01:41:03.482Z,0.03
2022-07-30T01:42:04.226Z,0.02
2022-07-30T01:43:04.085Z,0.02
2022-07-30T01:44:04.609Z,0.02
2022-07-30T01:45:04.137Z,0.02
2022-07-30T01:46:04.513Z,0.02
2022-07-30T01:47:03.668Z,0.03
2022-07-30T01:48:03.401Z,0.02
2022-07-30T01:49:03.968Z,0.02
2022-07-30T01:50:03.418Z,0.02
2022-07-30T01:51:03.777Z,0.01
2022-07-30T01:52:04.153Z,0.02
2022-07-30T01:53:03.895Z,0.02
2022-07-30T01:54:03.556Z,0.02
2022-07-30T01:55:03.802Z,0.02
2022-07-30T01:56:03.543Z,0.02
2022-07-30T01:57:04.124Z,0.02
2022-07-30T01:58:04.621Z,0.02
2022-07-30T01:59:04.288Z,0.01
2022-07-30T02:00:04.649Z,0.03
2022-07-30T02:01:04.438Z,0.02
2022-07-30T02:02:02.096Z,0.02
2022-07-30T02:03:02.356Z,0.02
2022-07-30T02:04:02.354Z,0.02
2022-07-30T02:05:02.095Z,0.02
2022-07-30T02:06:02.300Z,0.02
2022-07-30T02:07:03.327Z,0.02
2022-07-30T02:08:03.248Z,0.02
2022-07-30T02:09:02.864Z,0.02
2022-07-30T02:10:03.270Z,0.02
2022-07-30T02:11:02.913Z,0.02
2022-07-30T02:12:02.515Z,0.03
2022-07-30T02:13:02.859Z,0.02
2022-07-30T02:14:02.420Z,0.03
2022-07-30T02:15:02.589Z,0.02
2022-07-30T02:16:02.885Z,0.02
2022-07-30T02:17:03.043Z,0.02
2022-07-30T02:18:02.438Z,0.02
2022-07-30T02:19:04.391Z,0.02
2022-07-30T02:20:09.259Z,0.02
2022-07-30T02:21:07.264Z,0.02
2022-07-30T02:22:02.787Z,0.02
2022-07-30T02:23:02.698Z,0.02
2022-07-30T02:24:03.112Z,0.02
2022-07-30T02:25:02.728Z,0.02
2022-07-30T02:26:03.182Z,0.02
2022-07-30T02:27:03.305Z,0.02
2022-07-30T02:28:03.224Z,0.03
2022-07-30T02:29:02.902Z,0.02
2022-07-30T02:30:03.278Z,0.02
2022-07-30T02:31:03.268Z,0.02
2022-07-30T02:32:03.000Z,0.02
2022-07-30T02:33:03.302Z,0.02
2022-07-30T02:34:03.232Z,0.02
2022-07-30T02:35:02.998Z,0.01
2022-07-30T02:36:03.398Z,0.03
2022-07-30T02:37:03.401Z,0.02
2022-07-30T02:38:03.227Z,0.01
2022-07-30T02:39:03.199Z,0.03
2022-07-30T02:40:03.305Z,0.02
2022-07-30T02:41:03.224Z,0.02
2022-07-30T02:42:02.669Z,0.02
2022-07-30T02:43:03.005Z,0.02
2022-07-30T02:44:02.973Z,0.02
2022-07-30T02:45:03.005Z,0.01
2022-07-30T02:46:02.696Z,0.02
2022-07-30T02:47:04.849Z,0.02
2022-07-30T02:48:03.150Z,0.02
2022-07-30T02:49:02.890Z,0.02
2022-07-30T02:50:03.180Z,0.02
2022-07-30T02:51:03.295Z,0.01
2022-07-30T02:52:03.337Z,0.02
2022-07-30T02:53:03.765Z,0.01
2022-07-30T02:54:03.337Z,0.02
2022-07-30T02:55:03.603Z,0.02
2022-07-30T02:56:03.251Z,0.02
2022-07-30T02:57:03.109Z,0.02
2022-07-30T02:58:02.769Z,0.02
2022-07-30T02:59:02.509Z,0.02
2022-07-30T03:00:02.865Z,0.02
2022-07-30T03:01:03.301Z,0.02
2022-07-30T03:02:03.122Z,0.02
2022-07-30T03:03:03.332Z,0.02
2022-07-30T03:04:03.076Z,0.01
2022-07-30T03:05:03.420Z,0.02
2022-07-30T03:06:03.066Z,0.01
2022-07-30T03:07:07.893Z,0.02
2022-07-30T03:08:03.416Z,0.02
2022-07-30T03:09:03.891Z,0.02
2022-07-30T03:10:03.786Z,0.02
2022-07-30T03:11:03.469Z,0.02
2022-07-30T03:12:02.648Z,0.02
2022-07-30T03:13:03.004Z,0.02
2022-07-30T03:14:02.645Z,0.02
2022-07-30T03:15:03.006Z,0.01
2022-07-30T03:16:02.764Z,0.02
2022-07-30T03:17:03.232Z,0.02
2022-07-30T03:18:03.214Z,0.02
2022-07-30T03:19:05.139Z,0.02
2022-07-30T03:20:03.129Z,0.02
2022-07-30T03:21:03.483Z,0.02
2022-07-30T03:22:02.711Z,0.02
2022-07-30T03:23:02.397Z,0.03
2022-07-30T03:24:02.995Z,0.03
2022-07-30T03:25:02.494Z,0.02
2022-07-30T03:26:02.605Z,0.02
2022-07-30T03:27:04.228Z,0.02
2022-07-30T03:28:03.341Z,0.02
2022-07-30T03:29:03.614Z,0.02
2022-07-30T03:30:03.275Z,0.02
2022-07-30T03:31:03.681Z,0.03
2022-07-30T03:32:03.153Z,0.02
2022-07-30T03:33:03.161Z,0.02
2022-07-30T03:34:03.244Z,0.02
2022-07-30T03:35:06.384Z,0.02
2022-07-30T03:36:03.406Z,0.02
2022-07-30T03:37:03.357Z,0.02
2022-07-30T03:38:03.041Z,0.02
2022-07-30T03:39:02.794Z,0.02
2022-07-30T03:40:03.047Z,0.03
2022-07-30T03:41:02.780Z,0.03
2022-07-30T03:42:03.185Z,0.02
2022-07-30T03:43:02.947Z,0.02
2022-07-30T03:44:03.369Z,0.03
2022-07-30T03:45:03.183Z,0.02
2022-07-30T03:46:03.430Z,0.03
2022-07-30T03:47:03.644Z,0.02
2022-07-30T03:48:03.347Z,0.03
2022-07-30T03:49:03.486Z,0.04
2022-07-30T03:50:02.748Z,0.03
2022-07-30T03:51:03.231Z,0.03
2022-07-30T03:52:03.717Z,0.04
2022-07-30T03:53:03.210Z,0.03
2022-07-30T03:54:03.644Z,0.03
2022-07-30T03:55:03.352Z,0.03
2022-07-30T03:56:03.766Z,0.03
2022-07-30T03:57:03.981Z,0.03
2022-07-30T03:58:03.855Z,0.04
2022-07-30T03:59:03.641Z,0.04
2022-07-30T04:00:03.587Z,0.04
2022-07-30T04:01:03.473Z,0.04
2022-07-30T04:02:07.214Z,0.04
2022-07-30T04:03:03.881Z,0.04
2022-07-30T04:04:03.774Z,0.04
2022-07-30T04:05:03.752Z,0.05
2022-07-30T04:06:03.932Z,0.05
2022-07-30T04:07:03.812Z,0.05
2022-07-30T04:08:03.470Z,0.05
2022-07-30T04:09:03.264Z,0.05
2022-07-30T04:10:02.935Z,0.06
2022-07-30T04:11:03.372Z,0.07
2022-07-30T04:12:03.701Z,0.06
2022-07-30T04:13:07.778Z,0.06
2022-07-30T04:14:03.299Z,0.08
2022-07-30T04:15:03.706Z,0.08
2022-07-30T04:16:31.752Z,0.08
2022-07-30T04:17:04.389Z,0.08
2022-07-30T04:18:03.671Z,0.10
2022-07-30T04:19:03.938Z,0.11
2022-07-30T04:20:03.765Z,0.10
2022-07-30T04:21:03.613Z,0.10
2022-07-30T04:22:03.830Z,0.11
2022-07-30T04:23:04.029Z,0.11
2022-07-30T04:24:05.561Z,0.11
2022-07-30T04:25:03.654Z,0.11
2022-07-30T04:26:03.792Z,0.12
2022-07-30T04:27:04.497Z,0.12
2022-07-30T04:28:04.320Z,0.12
2022-07-30T04:29:04.128Z,0.12
2022-07-30T04:30:03.824Z,0.13
2022-07-30T04:31:04.379Z,0.13
2022-07-30T04:32:04.031Z,0.13
2022-07-30T04:33:03.973Z,0.13
2022-07-30T04:34:04.587Z,0.14
2022-07-30T04:35:03.669Z,0.15
2022-07-30T04:36:03.386Z,0.16
2022-07-30T04:37:04.907Z,0.17
2022-07-30T04:38:04.275Z,0.17
2022-07-30T04:39:04.021Z,0.18
2022-07-30T04:40:04.424Z,0.18
2022-07-30T04:41:04.242Z,0.18
2022-07-30T04:42:03.291Z,0.20
2022-07-30T04:43:03.098Z,0.21
2022-07-30T04:44:03.386Z,0.21
2022-07-30T04:45:03.151Z,0.21
2022-07-30T04:46:03.627Z,0.20
2022-07-30T04:47:04.153Z,0.20
2022-07-30T04:48:03.631Z,0.21
2022-07-30T04:49:03.777Z,0.21
2022-07-30T04:50:03.902Z,0.21
2022-07-30T04:51:03.528Z,0.21
2022-07-30T04:52:04.335Z,0.21
2022-07-30T04:53:04.145Z,0.21
2022-07-30T04:54:03.838Z,0.21
2022-07-30T04:55:04.270Z,0.20
2022-07-30T04:56:03.994Z,0.20
2022-07-30T04:57:04.192Z,0.20
2022-07-30T04:58:03.685Z,0.22
2022-07-30T04:59:03.329Z,0.21
2022-07-30T05:00:03.529Z,0.21
2022-07-30T05:01:03.865Z,0.21
2022-07-30T05:02:02.748Z,0.22
2022-07-30T05:03:03.013Z,0.22
2022-07-30T05:04:02.746Z,0.21
2022-07-30T05:05:03.195Z,0.23
2022-07-30T05:06:02.941Z,0.23
2022-07-30T05:07:03.762Z,0.24
2022-07-30T05:08:03.422Z,0.24
2022-07-30T05:09:03.840Z,0.25
2022-07-30T05:10:03.877Z,0.26
2022-07-30T05:11:03.854Z,0.27
2022-07-30T05:12:03.001Z,0.26
2022-07-30T05:13:03.061Z,0.25
2022-07-30T05:14:02.606Z,0.25
2022-07-30T05:15:02.934Z,0.25
2022-07-30T05:16:03.239Z,0.26
2022-07-30T05:17:04.063Z,0.26
2022-07-30T05:18:03.060Z,0.27
2022-07-30T05:19:07.801Z,0.27
2022-07-30T05:20:03.000Z,0.27
2022-07-30T05:21:03.321Z,0.29
2022-07-30T05:22:06.608Z,0.32
2022-07-30T05:23:03.198Z,0.31
2022-07-30T05:24:03.186Z,0.30
2022-07-30T05:25:03.101Z,0.30
2022-07-30T05:26:03.535Z,0.29
2022-07-30T05:27:03.788Z,0.31
2022-07-30T05:28:03.314Z,0.31
2022-07-30T05:29:04.010Z,0.32
2022-07-30T05:30:03.467Z,0.32
2022-07-30T05:31:03.644Z,0.33
2022-07-30T05:32:03.511Z,0.37
2022-07-30T05:33:03.700Z,0.35
2022-07-30T05:34:03.814Z,0.37
2022-07-30T05:35:03.054Z,0.39
2022-07-30T05:36:03.446Z,0.40
2022-07-30T05:37:04.015Z,0.38
2022-07-30T05:38:04.160Z,0.46
2022-07-30T05:39:03.265Z,0.47
2022-07-30T05:40:03.864Z,0.46
2022-07-30T05:41:03.719Z,0.47
2022-07-30T05:42:03.046Z,0.48
2022-07-30T05:43:03.290Z,0.51
2022-07-30T05:44:03.050Z,0.53
2022-07-30T05:45:03.131Z,0.53
2022-07-30T05:46:03.197Z,0.53
2022-07-30T05:47:03.859Z,0.55
2022-07-30T05:48:03.446Z,0.56
2022-07-30T05:49:03.984Z,0.58
2022-07-30T05:50:05.296Z,0.60
2022-07-30T05:51:03.657Z,0.61
2022-07-30T05:52:03.178Z,0.61
2022-07-30T05:53:03.209Z,0.62
2022-07-30T05:54:03.194Z,0.64
2022-07-30T05:55:02.964Z,0.63
2022-07-30T05:56:03.498Z,0.64
2022-07-30T05:57:03.834Z,0.66
2022-07-30T05:58:03.462Z,0.65
2022-07-30T05:59:03.321Z,0.66
2022-07-30T06:00:03.075Z,0.65
2022-07-30T06:01:03.615Z,0.65
2022-07-30T06:02:03.744Z,0.67
2022-07-30T06:03:03.682Z,0.68
2022-07-30T06:04:03.527Z,0.69
2022-07-30T06:05:03.483Z,0.69
2022-07-30T06:06:03.357Z,0.71
2022-07-30T06:07:03.425Z,0.72
2022-07-30T06:08:03.004Z,0.75
2022-07-30T06:09:02.791Z,0.76
2022-07-30T06:10:03.163Z,0.76
2022-07-30T06:11:02.727Z,0.77
2022-07-30T06:12:03.307Z,0.78
2022-07-30T06:13:02.971Z,0.77
2022-07-30T06:14:03.106Z,0.78
2022-07-30T06:15:02.958Z,0.79
2022-07-30T06:16:03.112Z,0.79
2022-07-30T06:17:04.041Z,0.80
2022-07-30T06:18:04.085Z,0.80
2022-07-30T06:19:03.614Z,0.81
2022-07-30T06:20:03.496Z,0.83
2022-07-30T06:21:03.445Z,0.83
2022-07-30T06:22:06.591Z,0.84
2022-07-30T06:23:03.731Z,0.86
2022-07-30T06:24:03.642Z,0.91
2022-07-30T06:25:03.526Z,0.89
2022-07-30T06:26:03.968Z,0.90
2022-07-30T06:27:03.651Z,0.92
2022-07-30T06:28:20.992Z,0.94
2022-07-30T06:29:03.188Z,0.96
2022-07-30T06:30:03.115Z,0.98
2022-07-30T06:31:03.165Z,1.00
2022-07-30T06:32:03.748Z,1.02
2022-07-30T06:33:03.722Z,1.01
2022-07-30T06:34:03.780Z,1.00
2022-07-30T06:35:05.090Z,1.02
2022-07-30T06:36:03.998Z,1.06
2022-07-30T06:37:04.351Z,1.08
2022-07-30T06:38:07.416Z,1.10
2022-07-30T06:39:03.840Z,1.11
2022-07-30T06:40:04.069Z,1.13
2022-07-30T06:41:04.643Z,1.14
2022-07-30T06:42:03.374Z,1.15
2022-07-30T06:43:03.232Z,1.15
2022-07-30T06:44:03.421Z,1.17
2022-07-30T06:45:03.230Z,1.19
2022-07-30T06:46:03.213Z,1.21
2022-07-30T06:47:07.739Z,1.22
2022-07-30T06:48:03.564Z,1.24
2022-07-30T06:49:03.971Z,1.24
2022-07-30T06:50:03.878Z,1.25
2022-07-30T06:51:03.885Z,1.26
2022-07-30T06:52:04.149Z,1.29
2022-07-30T06:53:03.960Z,1.31
2022-07-30T06:54:03.884Z,1.30
2022-07-30T06:55:03.886Z,1.31
2022-07-30T06:56:04.305Z,1.32
2022-07-30T06:57:03.376Z,1.32
2022-07-30T06:58:03.169Z,1.31
2022-07-30T06:59:02.951Z,1.32
2022-07-30T07:00:03.367Z,1.33
2022-07-30T07:01:03.406Z,1.34
2022-07-30T07:02:02.933Z,1.36
2022-07-30T07:03:03.142Z,1.37
2022-07-30T07:04:03.464Z,1.37
2022-07-30T07:05:02.995Z,1.37
2022-07-30T07:06:02.971Z,1.38
2022-07-30T07:07:12.618Z,1.37
2022-07-30T07:08:03.456Z,1.37
2022-07-30T07:09:03.461Z,1.40
2022-07-30T07:10:03.444Z,1.40
2022-07-30T07:11:03.310Z,1.40
2022-07-30T07:12:03.992Z,1.40
2022-07-30T07:13:03.960Z,1.38
2022-07-30T07:14:04.812Z,1.42
2022-07-30T07:15:04.059Z,1.44
2022-07-30T07:16:04.036Z,1.46
2022-07-30T07:17:04.183Z,1.47
2022-07-30T07:18:03.995Z,1.48
2022-07-30T07:19:04.110Z,1.48
2022-07-30T07:20:04.013Z,1.47
2022-07-30T07:21:04.105Z,1.50
2022-07-30T07:22:04.101Z,1.51
2022-07-30T07:23:09.207Z,1.50
2022-07-30T07:24:04.083Z,1.49
2022-07-30T07:25:04.230Z,1.55
2022-07-30T07:26:04.009Z,1.53
2022-07-30T07:27:04.365Z,1.53
2022-07-30T07:28:11.844Z,1.55
2022-07-30T07:29:05.400Z,1.53
2022-07-30T07:30:05.987Z,1.57
2022-07-30T07:31:04.534Z,1.59
2022-07-30T07:32:07.810Z,1.60
2022-07-30T07:33:03.571Z,1.59
2022-07-30T07:34:04.181Z,1.58
2022-07-30T07:35:04.041Z,1.62
2022-07-30T07:36:03.654Z,1.63
2022-07-30T07:37:04.035Z,1.60
2022-07-30T07:38:03.294Z,1.65
2022-07-30T07:39:03.777Z,1.69
2022-07-30T07:40:03.285Z,1.71
2022-07-30T07:41:03.633Z,1.69
2022-07-30T07:42:04.495Z,1.65
2022-07-30T07:43:04.151Z,1.68
2022-07-30T07:44:04.304Z,1.73
2022-07-30T07:45:04.355Z,1.75
2022-07-30T07:46:04.398Z,1.76
2022-07-30T07:47:04.026Z,1.77
2022-07-30T07:48:03.618Z,1.76
2022-07-30T07:49:03.960Z,1.76
2022-07-30T07:50:03.823Z,1.78
2022-07-30T07:51:03.507Z,1.67
2022-07-30T07:52:04.135Z,1.82
2022-07-30T07:53:03.620Z,1.81
2022-07-30T07:54:20.402Z,1.75
2022-07-30T07:55:03.828Z,1.86
2022-07-30T07:56:03.671Z,1.86
2022-07-30T07:57:04.500Z,1.87
2022-07-30T07:58:04.283Z,1.91
2022-07-30T07:59:04.536Z,1.95
2022-07-30T08:00:04.042Z,1.89
2022-07-30T08:01:04.073Z,1.86
2022-07-30T08:02:03.945Z,1.95
2022-07-30T08:03:02.618Z,1.98
2022-07-30T08:04:02.581Z,1.68
2022-07-30T08:05:02.801Z,1.91
2022-07-30T08:06:06.354Z,1.81
2022-07-30T08:07:04.518Z,1.03
2022-07-30T08:08:02.822Z,1.96
2022-07-30T08:09:03.644Z,2.02
2022-07-30T08:10:03.456Z,2.01
2022-07-30T08:11:03.424Z,2.00
2022-07-30T08:12:02.356Z,2.00
2022-07-30T08:13:02.421Z,2.08
2022-07-30T08:14:02.021Z,2.12
2022-07-30T08:15:02.143Z,2.09
2022-07-30T08:16:02.198Z,1.99
2022-07-30T08:17:03.028Z,2.06
2022-07-30T08:18:02.357Z,1.93
2022-07-30T08:19:03.097Z,1.30
2022-07-30T08:20:02.623Z,2.15
2022-07-30T08:21:03.272Z,2.15
2022-07-30T08:22:03.109Z,2.20
2022-07-30T08:23:03.757Z,2.18
2022-07-30T08:24:03.830Z,2.18
2022-07-30T08:25:03.696Z,2.17
2022-07-30T08:26:03.808Z,2.23
2022-07-30T08:27:03.929Z,2.24
2022-07-30T08:28:03.520Z,2.22
2022-07-30T08:29:02.997Z,2.34
2022-07-30T08:30:02.857Z,2.29
2022-07-30T08:31:02.967Z,2.27
2022-07-30T08:32:02.635Z,1.94
2022-07-30T08:33:02.735Z,2.18
2022-07-30T08:34:02.955Z,2.17
2022-07-30T08:35:03.067Z,2.18
2022-07-30T08:36:09.082Z,2.07
2022-07-30T08:37:02.963Z,2.33
2022-07-30T08:38:02.349Z,2.26
2022-07-30T08:39:02.559Z,2.07
2022-07-30T08:40:02.679Z,2.34
2022-07-30T08:41:02.832Z,2.36
2022-07-30T08:42:03.434Z,2.25
2022-07-30T08:43:02.715Z,2.20
2022-07-30T08:44:03.222Z,2.28
2022-07-30T08:45:03.374Z,2.21
2022-07-30T08:46:03.392Z,1.06
2022-07-30T08:47:03.673Z,2.33
2022-07-30T08:48:02.183Z,2.26
2022-07-30T08:49:07.647Z,2.26
2022-07-30T08:50:02.647Z,2.27
2022-07-30T08:51:02.172Z,2.25
2022-07-30T08:52:02.843Z,2.28
2022-07-30T08:53:02.801Z,2.33
2022-07-30T08:54:02.745Z,2.33
2022-07-30T08:55:02.525Z,2.34
2022-07-30T08:56:02.481Z,2.34
2022-07-30T08:57:03.144Z,2.31
2022-07-30T08:58:03.653Z,2.36
2022-07-30T08:59:03.215Z,2.40
2022-07-30T09:00:03.362Z,2.40
2022-07-30T09:01:04.066Z,2.35
2022-07-30T09:02:05.641Z,2.34
2022-07-30T09:03:03.086Z,2.33
2022-07-30T09:04:03.468Z,2.31
2022-07-30T09:05:02.914Z,2.38
2022-07-30T09:06:03.311Z,2.44
2022-07-30T09:07:04.411Z,2.43
2022-07-30T09:08:08.496Z,2.42
2022-07-30T09:09:03.396Z,2.44
2022-07-30T09:10:03.936Z,2.44
2022-07-30T09:11:03.919Z,2.45
2022-07-30T09:12:03.246Z,2.36
2022-07-30T09:13:03.002Z,2.43
2022-07-30T09:14:05.858Z,2.51
2022-07-30T09:15:03.234Z,2.53
2022-07-30T09:16:03.183Z,2.52
2022-07-30T09:17:04.075Z,2.55
2022-07-30T09:18:03.524Z,2.56
2022-07-30T09:19:03.862Z,2.56
2022-07-30T09:20:03.875Z,2.48
2022-07-30T09:21:03.808Z,2.40
2022-07-30T09:22:03.300Z,2.37
2022-07-30T09:23:03.027Z,2.52
2022-07-30T09:24:03.426Z,2.50
2022-07-30T09:25:03.101Z,2.53
2022-07-30T09:26:03.232Z,2.60
2022-07-30T09:27:03.404Z,2.65
2022-07-30T09:28:03.165Z,2.67
2022-07-30T09:29:02.442Z,2.73
2022-07-30T09:30:03.629Z,2.73
2022-07-30T09:31:02.623Z,2.69
2022-07-30T09:32:04.315Z,2.62
2022-07-30T09:33:04.079Z,2.64
2022-07-30T09:34:03.977Z,2.68
2022-07-30T09:35:06.043Z,2.64
2022-07-30T09:36:03.092Z,2.53
2022-07-30T09:37:03.010Z,2.58
2022-07-30T09:38:06.335Z,2.64
2022-07-30T09:39:02.660Z,2.70
2022-07-30T09:40:03.294Z,2.80
2022-07-30T09:41:12.228Z,2.92
2022-07-30T09:42:03.567Z,3.03
2022-07-30T09:43:03.022Z,3.17
2022-07-30T09:44:03.560Z,3.30
2022-07-30T09:45:02.684Z,3.19
2022-07-30T09:46:02.617Z,2.98
2022-07-30T09:47:03.664Z,1.32
2022-07-30T09:48:03.640Z,1.15
2022-07-30T09:49:03.420Z,1.00
2022-07-30T09:50:07.484Z,1.00
2022-07-30T09:51:03.571Z,1.03
2022-07-30T09:52:03.117Z,2.63
2022-07-30T09:53:03.506Z,2.71
2022-07-30T09:54:03.031Z,2.76
2022-07-30T09:55:03.611Z,2.38
2022-07-30T09:56:03.292Z,0.95
2022-07-30T09:57:03.167Z,0.86
2022-07-30T09:58:03.437Z,0.82
2022-07-30T09:59:03.302Z,0.90
2022-07-30T10:00:03.757Z,2.57
2022-07-30T10:01:03.605Z,2.63
2022-07-30T10:02:04.093Z,2.56
2022-07-30T10:03:12.673Z,2.65
2022-07-30T10:04:02.235Z,2.66
2022-07-30T10:05:02.042Z,2.63
2022-07-30T10:06:03.015Z,2.67
2022-07-30T10:07:03.430Z,2.52
2022-07-30T10:08:05.444Z,2.58
2022-07-30T10:09:13.896Z,2.65
2022-07-30T10:10:02.672Z,2.65
2022-07-30T10:11:04.953Z,2.66
2022-07-30T10:12:03.530Z,2.61
2022-07-30T10:13:04.233Z,2.65
2022-07-30T10:14:03.092Z,2.63
2022-07-30T10:15:06.279Z,2.34
2022-07-30T10:16:02.881Z,2.59
2022-07-30T10:17:03.101Z,2.44
2022-07-30T10:18:02.787Z,2.61
2022-07-30T10:19:02.534Z,2.47
2022-07-30T10:20:03.030Z,2.73
2022-07-30T10:21:05.557Z,2.61
2022-07-30T10:22:02.057Z,2.74
2022-07-30T10:23:08.070Z,2.60
2022-07-30T10:24:02.555Z,2.72
2022-07-30T10:25:02.289Z,2.63
2022-07-30T10:26:03.572Z,2.75
2022-07-30T10:27:06.042Z,2.80
2022-07-30T10:28:02.965Z,2.94
2022-07-30T10:29:02.611Z,3.05
2022-07-30T10:30:04.026Z,3.14
2022-07-30T10:31:46.440Z,2.60
2022-07-30T10:32:02.571Z,1.20
2022-07-30T10:33:02.971Z,1.64
2022-07-30T10:34:03.197Z,2.13
2022-07-30T10:35:03.215Z,1.39
2022-07-30T10:36:03.032Z,2.85
2022-07-30T10:37:04.763Z,2.61
2022-07-30T10:38:03.208Z,2.06
2022-07-30T10:39:03.177Z,1.46
2022-07-30T10:40:03.493Z,2.87
2022-07-30T10:41:03.400Z,2.96
2022-07-30T10:42:03.230Z,2.82
2022-07-30T10:43:02.521Z,2.95
2022-07-30T10:44:02.453Z,1.43
2022-07-30T10:45:02.814Z,1.69
2022-07-30T10:46:04.382Z,2.74
2022-07-30T10:47:06.984Z,2.81
2022-07-30T10:48:03.089Z,2.68
2022-07-30T10:49:02.974Z,2.63
2022-07-30T10:50:03.033Z,2.63
2022-07-30T10:51:03.112Z,2.72
2022-07-30T10:52:03.082Z,2.49
2022-07-30T10:53:03.053Z,2.55
2022-07-30T10:54:02.511Z,3.18
2022-07-30T10:55:02.559Z,1.98
2022-07-30T10:56:02.730Z,1.17
2022-07-30T10:57:02.392Z,1.14
2022-07-30T10:58:02.642Z,2.23
2022-07-30T10:59:02.931Z,2.51
2022-07-30T11:00:04.220Z,2.61
2022-07-30T11:01:02.812Z,2.52
2022-07-30T11:02:02.925Z,2.23
2022-07-30T11:03:02.896Z,1.40
2022-07-30T11:04:03.001Z,2.41
2022-07-30T11:05:02.711Z,3.60
2022-07-30T11:06:02.718Z,2.34
2022-07-30T11:07:03.204Z,2.22
2022-07-30T11:08:03.125Z,0.97
2022-07-30T11:09:02.671Z,0.92
2022-07-30T11:10:09.142Z,2.94
2022-07-30T11:11:19.453Z,4.46
2022-07-30T11:12:15.980Z,4.59
2022-07-30T11:13:02.976Z,4.69
2022-07-30T11:14:03.395Z,2.81
2022-07-30T11:15:07.187Z,4.77
2022-07-30T11:16:03.392Z,5.07
2022-07-30T11:17:02.931Z,5.07
2022-07-30T11:18:02.577Z,5.13
2022-07-30T11:19:27.336Z,5.18
2022-07-30T11:20:02.521Z,5.05
2022-07-30T11:21:02.757Z,4.93
2022-07-30T11:22:03.198Z,5.05
2022-07-30T11:23:02.839Z,5.15
2022-07-30T11:24:03.314Z,4.96
2022-07-30T11:25:06.633Z,4.94
2022-07-30T11:26:03.296Z,5.00
2022-07-30T11:27:03.433Z,1.40
2022-07-30T11:28:02.960Z,3.09
2022-07-30T11:29:03.224Z,4.91
2022-07-30T11:30:02.974Z,4.91
2022-07-30T11:31:10.298Z,4.88
2022-07-30T11:32:06.641Z,4.95
2022-07-30T11:33:02.430Z,4.83
2022-07-30T11:34:02.756Z,4.38
2022-07-30T11:35:02.987Z,5.15
2022-07-30T11:36:02.710Z,1.54
2022-07-30T11:37:02.875Z,1.85
2022-07-30T11:38:03.084Z,4.92
2022-07-30T11:39:05.107Z,5.30
2022-07-30T11:40:03.270Z,5.31
2022-07-30T11:41:03.568Z,5.28
2022-07-30T11:42:03.991Z,5.44
2022-07-30T11:43:03.397Z,5.77
2022-07-30T11:44:03.510Z,5.88
2022-07-30T11:45:04.173Z,5.41
2022-07-30T11:46:03.640Z,5.15
2022-07-30T11:47:03.337Z,5.22
2022-07-30T11:48:02.593Z,5.50
2022-07-30T11:49:02.973Z,5.67
2022-07-30T11:50:03.173Z,5.71
2022-07-30T11:51:04.046Z,5.78
2022-07-30T11:52:02.947Z,5.67
2022-07-30T11:53:03.486Z,5.67
2022-07-30T11:54:03.803Z,5.47
2022-07-30T11:55:03.339Z,5.38
2022-07-30T11:56:03.303Z,5.47
2022-07-30T11:57:04.713Z,5.58
2022-07-30T11:58:03.382Z,5.58
2022-07-30T11:59:03.513Z,5.26
2022-07-30T12:00:03.458Z,5.27
2022-07-30T12:01:09.061Z,5.09
2022-07-30T12:02:04.043Z,4.94
2022-07-30T12:03:04.286Z,4.97
2022-07-30T12:04:02.488Z,4.92
2022-07-30T12:05:02.747Z,4.96
2022-07-30T12:06:02.515Z,5.22
2022-07-30T12:07:03.261Z,5.20
2022-07-30T12:08:02.616Z,5.26
2022-07-30T12:09:02.786Z,5.29
2022-07-30T12:10:02.955Z,5.43
2022-07-30T12:11:02.976Z,5.34
2022-07-30T12:12:03.016Z,5.37
2022-07-30T12:13:03.210Z,5.49
2022-07-30T12:14:03.400Z,5.41
2022-07-30T12:15:03.736Z,5.40
2022-07-30T12:16:03.139Z,5.32
2022-07-30T12:17:03.832Z,5.23
2022-07-30T12:18:25.350Z,5.07
2022-07-30T12:19:02.853Z,4.74
2022-07-30T12:20:03.050Z,4.50
2022-07-30T12:21:02.807Z,4.72
2022-07-30T12:22:02.853Z,4.67
2022-07-30T12:23:03.032Z,4.67
2022-07-30T12:24:03.022Z,4.32
2022-07-30T12:25:03.377Z,4.32
2022-07-30T12:26:03.519Z,4.20
2022-07-30T12:27:04.061Z,2.35
2022-07-30T12:28:03.721Z,3.66
2022-07-30T12:29:03.410Z,3.51
2022-07-30T12:30:03.547Z,3.42
2022-07-30T12:31:03.657Z,2.72
2022-07-30T12:32:03.823Z,1.89
2022-07-30T12:33:03.107Z,1.85
2022-07-30T12:34:03.321Z,2.05
2022-07-30T12:35:03.323Z,2.37
2022-07-30T12:36:03.062Z,2.37
2022-07-30T12:37:03.701Z,2.59
2022-07-30T12:38:03.636Z,2.85
2022-07-30T12:39:03.674Z,2.76
2022-07-30T12:40:03.635Z,2.50
2022-07-30T12:41:03.086Z,2.55
2022-07-30T12:42:03.419Z,2.11
2022-07-30T12:43:03.476Z,2.71
2022-07-30T12:44:03.546Z,2.65
2022-07-30T12:45:03.648Z,2.59
2022-07-30T12:46:04.070Z,4.55
2022-07-30T12:47:04.376Z,4.38
2022-07-30T12:48:02.768Z,4.10
2022-07-30T12:49:06.388Z,3.02
2022-07-30T12:50:03.125Z,1.86
2022-07-30T12:51:03.108Z,1.83
2022-07-30T12:52:03.389Z,1.74
2022-07-30T12:53:03.650Z,1.96
2022-07-30T12:54:03.418Z,1.91
2022-07-30T12:55:03.592Z,2.13
2022-07-30T12:56:03.938Z,2.22
2022-07-30T12:57:04.519Z,1.97
2022-07-30T12:58:07.995Z,2.03
2022-07-30T12:59:03.491Z,1.91
2022-07-30T13:00:03.553Z,1.87
2022-07-30T13:01:03.172Z,1.74
2022-07-30T13:02:02.989Z,1.90
2022-07-30T13:03:03.018Z,1.97
2022-07-30T13:04:03.173Z,2.03
2022-07-30T13:05:11.524Z,1.90
2022-07-30T13:06:03.216Z,2.01
2022-07-30T13:07:03.280Z,2.00
2022-07-30T13:08:03.068Z,1.93
2022-07-30T13:09:03.376Z,1.64
2022-07-30T13:10:03.609Z,1.59
2022-07-30T13:11:03.189Z,1.35
2022-07-30T13:12:03.323Z,1.58
2022-07-30T13:13:03.259Z,1.63
2022-07-30T13:14:03.659Z,1.62
2022-07-30T13:15:03.194Z,1.49
2022-07-30T13:16:03.386Z,1.50
2022-07-30T13:17:04.217Z,1.55
2022-07-30T13:18:03.028Z,1.57